Bradley Beach, New Jersey
Current Conditions -  °F | °C
As of 10:35 PM on Saturday 22 Nov 2014 (Local Time) from KBLM Reporting Station
Overcast Overcast  
Wind Chill:   Ceiling: 12000
Heat Index:   Visibility: 10mi
Dew Point: -7°   Wind: 12mph
Humidity: 39%   Direction: 230°SW
Pressure: 30.22"   Gusts: 18mph
Location:  40.2°N, 74.01°W
Report Text: KBLM 230335Z AUTO 23010G16KT 10SM OVC120 06/M07 A3022 RMK AO1
Loading
Personal Weather Stations






























Interactive Weather Map New forecast layout! Learn more

10-Day Weather Forecast

Advertisements
Track Severe Weather on mobile